Time;durP1;ratioP1;P1;durP2;ratioP2;P2;SDS_P1;SDS_P2;PMS_P1;PMS_P2;Temp;Humidity;BMP_temperature;BMP_pressure;BME280_temperature;BME280_humidity;BME280_pressure;Samples;Min_cycle;Max_cycle;Signal;HPM_P1;HPM_P2
2023/03/27 00:00:25;;;;;;;3.80;1.23;;;6.60;99.90;;;;;;5057490;28;20482;-73
2023/03/27 00:02:53;;;;;;;2.73;1.13;;;6.60;99.90;;;;;;5057980;28;20488;-72
2023/03/27 00:05:21;;;;;;;4.30;1.40;;;6.60;99.90;;;;;;5057911;28;20512;-72
2023/03/27 00:08:08;;;;;;;3.40;1.60;;;6.50;99.90;;;;;;5055617;28;20478;-72
2023/03/27 00:10:36;;;;;;;4.63;1.37;;;6.50;99.90;;;;;;5048330;28;20543;-72
2023/03/27 00:13:09;;;;;;;4.37;1.30;;;6.50;99.90;;;;;;5057666;28;20447;-71
2023/03/27 00:15:39;;;;;;;5.17;2.40;;;6.50;99.90;;;;;;5057786;28;20448;-72
2023/03/27 00:18:06;;;;;;;7.70;1.10;;;6.50;99.90;;;;;;5057950;28;20440;-72
2023/03/27 00:20:53;;;;;;;6.00;1.50;;;6.50;99.90;;;;;;5057732;28;20468;-72
2023/03/27 00:23:47;;;;;;;2.70;1.40;;;6.50;99.90;;;;;;5042763;28;20486;-72
2023/03/27 00:26:14;;;;;;;3.93;2.00;;;6.50;99.90;;;;;;5058122;28;20512;-72
2023/03/27 00:28:46;;;;;;;7.10;1.53;;;6.30;99.90;;;;;;5056894;28;20435;-71
2023/03/27 00:31:16;;;;;;;1.73;1.37;;;6.30;99.90;;;;;;5057828;28;20947;-72
2023/03/27 00:33:43;;;;;;;6.40;1.70;;;6.30;99.90;;;;;;5057995;28;20421;-73
2023/03/27 00:36:13;;;;;;;2.90;1.20;;;6.40;99.90;;;;;;5042340;28;20444;-72
2023/03/27 00:38:42;;;;;;;2.67;1.37;;;6.30;99.90;;;;;;5050068;28;20448;-72
2023/03/27 00:41:11;;;;;;;10.57;1.50;;;6.30;99.90;;;;;;5058288;28;20519;-72
2023/03/27 00:43:42;;;;;;;2.77;1.30;;;6.20;99.90;;;;;;5057534;28;20428;-72
2023/03/27 00:46:31;;;;;;;6.70;0.93;;;6.20;99.90;;;;;;5057589;28;20424;-72
2023/03/27 00:49:01;;;;;;;2.57;1.30;;;6.20;99.90;;;;;;5057741;28;20472;-71
2023/03/27 00:51:47;;;;;;;1.90;1.57;;;6.20;99.90;;;;;;5037913;28;20461;-72
2023/03/27 00:54:20;;;;;;;4.30;1.10;;;6.20;99.90;;;;;;5038484;28;20426;-71
2023/03/27 00:57:01;;;;;;;7.80;1.73;;;6.20;99.90;;;;;;5060450;28;20474;-73
2023/03/27 00:59:35;;;;;;;5.13;1.17;;;6.10;99.90;;;;;;5056884;28;20455;-75
2023/03/27 01:02:05;;;;;;;2.10;1.10;;;6.20;99.90;;;;;;5057646;28;20440;-76
2023/03/27 01:04:48;;;;;;;2.47;1.10;;;6.20;99.90;;;;;;5058361;28;20443;-78
2023/03/27 01:07:23;;;;;;;4.60;1.60;;;6.10;99.90;;;;;;5051433;28;20456;-78
2023/03/27 01:10:33;;;;;;;3.10;1.53;;;6.10;99.90;;;;;;5056742;28;20510;-77
2023/03/27 01:13:24;;;;;;;2.03;1.10;;;6.10;99.90;;;;;;5056940;28;20437;-77
2023/03/27 01:16:00;;;;;;;2.87;1.40;;;6.00;99.90;;;;;;5052175;28;20472;-74
2023/03/27 01:19:05;;;;;;;3.90;1.63;;;6.00;99.90;;;;;;5057492;28;20440;-75
2023/03/27 01:22:17;;;;;;;2.90;1.27;;;6.00;99.90;;;;;;5056636;28;20471;-75
2023/03/27 01:25:17;;;;;;;1.63;1.20;;;5.90;99.90;;;;;;5042138;28;20437;-75
2023/03/27 01:28:17;;;;;;;3.73;1.10;;;5.90;99.90;;;;;;5057497;28;20452;-75
2023/03/27 01:30:52;;;;;;;12.70;1.03;;;5.90;99.90;;;;;;5057042;28;20518;-74
2023/03/27 01:37:11;;;;;;;7.90;1.80;;;5.80;99.90;;;;;;5057582;28;20464;-75
2023/03/27 01:39:47;;;;;;;1.60;1.10;;;5.70;99.90;;;;;;5057192;28;20444;-75
2023/03/27 01:45:10;;;;;;;2.57;1.50;;;5.60;99.90;;;;;;5056307;28;20523;-75
2023/03/27 01:47:54;;;;;;;2.10;1.60;;;5.60;99.90;;;;;;5056123;28;20408;-75
2023/03/27 01:50:44;;;;;;;6.57;1.00;;;5.60;99.90;;;;;;5068186;28;20486;-75
2023/03/27 01:53:17;;;;;;;6.50;2.33;;;5.50;99.90;;;;;;5055540;28;20444;-74
2023/03/27 01:56:12;;;;;;;2.67;1.33;;;5.50;99.90;;;;;;5055115;28;20511;-76
2023/03/27 01:58:45;;;;;;;1.40;1.20;;;5.50;99.90;;;;;;5056909;28;20436;-75
2023/03/27 02:03:43;;;;;;;5.23;1.57;;;5.50;99.90;;;;;;5053896;28;20465;-60
2023/03/27 02:06:17;;;;;;;1.27;1.10;;;5.50;99.90;;;;;;5055465;28;20456;-61
2023/03/27 02:08:50;;;;;;;6.73;1.27;;;5.40;99.90;;;;;;5060111;28;20471;-62
2023/03/27 02:11:18;;;;;;;6.03;1.50;;;5.40;99.90;;;;;;5071468;28;20451;-64
2023/03/27 02:13:48;;;;;;;3.10;1.80;;;5.40;99.90;;;;;;5056529;28;20475;-61
2023/03/27 02:16:20;;;;;;;1.83;1.30;;;5.40;99.90;;;;;;5056243;28;20456;-57
2023/03/27 02:18:55;;;;;;;2.90;1.00;;;5.40;99.90;;;;;;5065178;28;20902;-60
2023/03/27 02:21:24;;;;;;;2.37;1.30;;;5.40;99.90;;;;;;5059790;28;20455;-60
2023/03/27 02:23:51;;;;;;;2.53;1.73;;;5.40;99.90;;;;;;5064945;28;20472;-64
2023/03/27 02:26:20;;;;;;;2.90;1.57;;;5.40;99.90;;;;;;5063603;28;20955;-67
2023/03/27 02:29:05;;;;;;;1.50;0.90;;;5.40;99.90;;;;;;5049352;28;20464;-66
2023/03/27 02:31:44;;;;;;;1.20;0.90;;;5.30;99.90;;;;;;5054374;28;20501;-66
2023/03/27 02:34:32;;;;;;;2.20;1.10;;;5.20;99.90;;;;;;5068637;28;20471;-59
2023/03/27 02:37:06;;;;;;;1.20;1.00;;;5.20;99.90;;;;;;5054810;28;20482;-63
2023/03/27 02:39:42;;;;;;;2.70;1.13;;;5.10;99.90;;;;;;5055251;28;20439;-59
2023/03/27 02:42:16;;;;;;;1.87;1.10;;;5.10;99.90;;;;;;5053931;28;20994;-64
2023/03/27 02:44:50;;;;;;;4.60;1.20;;;5.10;99.90;;;;;;5060666;28;20459;-62
2023/03/27 02:47:27;;;;;;;5.70;1.20;;;5.00;99.90;;;;;;5055671;28;20458;-54
2023/03/27 02:50:00;;;;;;;1.40;0.83;;;5.00;99.90;;;;;;5040080;28;20483;-59
2023/03/27 02:52:31;;;;;;;1.23;0.93;;;4.90;99.90;;;;;;5063635;28;20474;-57
2023/03/27 02:55:13;;;;;;;2.83;1.53;;;4.80;99.90;;;;;;5050537;28;20540;-64
2023/03/27 02:57:45;;;;;;;3.40;1.00;;;4.80;99.90;;;;;;5053200;28;20467;-61
2023/03/27 03:00:18;;;;;;;3.90;1.33;;;4.80;99.90;;;;;;5069538;28;20483;-64
2023/03/27 03:02:47;;;;;;;1.30;1.07;;;4.70;99.90;;;;;;5061734;28;20486;-61
2023/03/27 03:05:19;;;;;;;3.40;0.90;;;4.70;99.90;;;;;;5068255;28;20505;-62
2023/03/27 03:07:49;;;;;;;3.40;1.10;;;4.60;99.90;;;;;;5066622;28;20463;-65
2023/03/27 03:10:20;;;;;;;2.90;1.00;;;4.70;99.90;;;;;;5054745;28;20495;-58
2023/03/27 03:12:50;;;;;;;1.40;0.87;;;4.60;99.90;;;;;;5066516;28;20447;-59
2023/03/27 03:15:17;;;;;;;1.40;0.90;;;4.60;99.90;;;;;;5075069;28;20443;-64
2023/03/27 03:17:46;;;;;;;1.20;0.90;;;4.60;99.90;;;;;;5074347;28;20483;-61
2023/03/27 03:20:14;;;;;;;1.80;1.03;;;4.60;99.90;;;;;;5068610;28;20448;-60
2023/03/27 03:22:41;;;;;;;3.07;0.80;;;4.50;99.90;;;;;;5073309;28;20500;-62
2023/03/27 03:25:10;;;;;;;3.63;1.10;;;4.50;99.90;;;;;;5067103;28;20471;-61
2023/03/27 03:27:37;;;;;;;1.73;0.97;;;4.50;99.90;;;;;;5054570;28;20520;-63
2023/03/27 03:30:11;;;;;;;2.63;0.90;;;4.50;99.90;;;;;;5055637;28;20496;-62
2023/03/27 03:32:39;;;;;;;1.83;1.00;;;4.40;99.90;;;;;;5068536;28;20480;-63
2023/03/27 03:35:08;;;;;;;3.10;0.87;;;4.40;99.90;;;;;;5074639;28;20498;-60
2023/03/27 03:37:37;;;;;;;6.33;1.57;;;4.40;99.90;;;;;;5077858;28;20451;-60
2023/03/27 03:40:10;;;;;;;1.57;0.90;;;4.30;99.90;;;;;;5069046;28;20486;-56
2023/03/27 03:42:43;;;;;;;5.00;1.60;;;4.30;99.90;;;;;;5058292;28;20463;-63
2023/03/27 03:45:12;;;;;;;2.80;0.90;;;4.30;99.90;;;;;;5070454;28;20469;-62
2023/03/27 03:47:39;;;;;;;1.10;0.83;;;4.20;99.90;;;;;;5061548;28;20448;-61
2023/03/27 03:50:07;;;;;;;1.30;0.90;;;4.20;99.90;;;;;;5046405;28;20581;-60
2023/03/27 03:52:34;;;;;;;3.33;0.90;;;4.20;99.90;;;;;;5054134;28;20475;-65
2023/03/27 03:55:02;;;;;;;1.70;1.27;;;4.10;99.90;;;;;;5042651;28;20451;-71
2023/03/27 03:57:29;;;;;;;1.90;1.10;;;4.10;99.90;;;;;;5048418;28;20484;-63
2023/03/27 03:59:57;;;;;;;1.50;1.00;;;4.10;99.90;;;;;;5045311;28;20467;-63
2023/03/27 04:02:28;;;;;;;1.20;0.90;;;4.00;99.90;;;;;;5061178;28;20495;-62
2023/03/27 04:04:58;;;;;;;1.37;0.93;;;4.00;99.90;;;;;;5064243;28;20494;-66
2023/03/27 04:07:30;;;;;;;2.73;1.47;;;4.00;99.90;;;;;;5072141;28;21156;-66
2023/03/27 04:10:01;;;;;;;1.20;1.10;;;3.90;99.90;;;;;;5055118;28;20574;-62
2023/03/27 04:12:35;;;;;;;1.60;1.27;;;3.90;99.90;;;;;;5064769;28;20455;-63
2023/03/27 04:15:01;;;;;;;3.20;1.20;;;3.90;99.90;;;;;;5070406;28;20479;-65
2023/03/27 04:17:32;;;;;;;2.20;1.20;;;3.90;99.90;;;;;;5054921;28;20875;-61
2023/03/27 04:19:59;;;;;;;1.70;0.87;;;3.80;99.90;;;;;;5053045;28;20475;-65
2023/03/27 04:22:28;;;;;;;1.03;0.80;;;3.80;99.90;;;;;;5053948;28;20474;-66
2023/03/27 04:24:56;;;;;;;0.90;0.70;;;3.80;99.90;;;;;;5054326;28;20897;-66
2023/03/27 04:27:23;;;;;;;1.67;1.30;;;3.80;99.90;;;;;;5065003;28;20483;-64
2023/03/27 04:29:49;;;;;;;1.10;0.80;;;3.80;99.90;;;;;;5068964;28;20943;-64
2023/03/27 04:32:17;;;;;;;1.00;0.70;;;3.80;99.90;;;;;;5073248;28;20463;-65
2023/03/27 04:34:47;;;;;;;1.57;1.20;;;3.80;99.90;;;;;;5071085;28;20483;-63
2023/03/27 04:37:14;;;;;;;1.37;1.10;;;3.80;99.90;;;;;;5073061;28;20563;-62
2023/03/27 04:39:45;;;;;;;2.00;1.10;;;3.70;99.90;;;;;;5056072;28;20940;-66
2023/03/27 04:42:13;;;;;;;4.77;1.30;;;3.80;99.90;;;;;;5053648;28;20567;-57
2023/03/27 04:44:39;;;;;;;3.67;1.43;;;3.80;99.90;;;;;;5062888;28;20459;-64
2023/03/27 04:47:07;;;;;;;2.93;1.37;;;3.70;99.90;;;;;;5072781;28;20486;-61
2023/03/27 04:49:39;;;;;;;6.83;1.07;;;3.70;99.90;;;;;;5053694;28;20455;-60
2023/03/27 04:52:08;;;;;;;1.07;0.97;;;3.60;99.90;;;;;;5034596;28;20469;-65
2023/03/27 04:54:35;;;;;;;1.40;0.77;;;3.60;99.90;;;;;;5051522;28;20452;-65
2023/03/27 04:57:06;;;;;;;3.10;1.77;;;3.60;99.90;;;;;;5055063;28;20467;-67
2023/03/27 04:59:35;;;;;;;2.03;1.13;;;3.50;99.90;;;;;;5054470;28;20484;-66
2023/03/27 05:02:05;;;;;;;1.40;0.90;;;3.50;99.90;;;;;;5058399;28;20447;-64
2023/03/27 05:04:32;;;;;;;1.30;0.90;;;3.50;99.90;;;;;;5057569;28;20488;-64
2023/03/27 05:07:01;;;;;;;1.00;0.80;;;3.50;99.90;;;;;;5058028;28;20458;-62
2023/03/27 05:09:29;;;;;;;4.63;1.73;;;3.50;99.90;;;;;;5061937;28;20523;-58
2023/03/27 05:11:56;;;;;;;1.73;1.13;;;3.50;99.90;;;;;;5054903;28;20472;-62
2023/03/27 05:14:25;;;;;;;9.43;1.67;;;3.60;99.90;;;;;;5058240;28;20515;-61
2023/03/27 05:16:52;;;;;;;1.20;1.00;;;3.50;99.90;;;;;;5057411;28;20436;-56
2023/03/27 05:19:19;;;;;;;1.10;0.80;;;3.60;99.90;;;;;;5056532;28;20463;-60
2023/03/27 05:21:47;;;;;;;1.20;1.00;;;3.60;99.90;;;;;;5057934;28;20453;-59
2023/03/27 05:24:14;;;;;;;1.40;1.13;;;3.60;99.90;;;;;;5064591;28;20507;-59
2023/03/27 05:26:42;;;;;;;1.20;1.00;;;3.60;99.90;;;;;;5073654;28;20451;-59
2023/03/27 05:29:09;;;;;;;3.40;1.50;;;3.70;99.90;;;;;;5067757;28;20519;-61
2023/03/27 05:31:37;;;;;;;1.70;1.00;;;3.70;99.90;;;;;;5067868;28;20487;-55
2023/03/27 05:34:04;;;;;;;1.50;0.90;;;3.60;99.90;;;;;;5055193;28;20520;-60
2023/03/27 05:36:31;;;;;;;4.93;1.83;;;3.70;99.90;;;;;;5058770;28;20479;-60
2023/03/27 05:38:58;;;;;;;1.30;0.80;;;3.70;99.90;;;;;;5054657;28;20448;-61
2023/03/27 05:41:25;;;;;;;1.63;0.90;;;3.60;99.90;;;;;;5052556;28;20480;-60
2023/03/27 05:43:54;;;;;;;2.00;1.03;;;3.60;99.90;;;;;;5074197;28;20439;-58
2023/03/27 05:46:21;;;;;;;4.00;1.77;;;3.60;99.90;;;;;;5054942;28;20532;-65
2023/03/27 05:48:48;;;;;;;1.63;1.33;;;3.60;99.90;;;;;;5050011;28;20503;-63
2023/03/27 05:51:15;;;;;;;2.10;1.10;;;3.60;99.90;;;;;;5052219;28;20515;-67
2023/03/27 05:53:42;;;;;;;1.70;1.10;;;3.50;99.90;;;;;;5065641;28;20475;-68
2023/03/27 05:56:09;;;;;;;2.20;1.30;;;3.50;99.90;;;;;;5047486;28;20480;-65
2023/03/27 05:58:37;;;;;;;1.87;1.50;;;3.50;99.90;;;;;;5057887;28;20455;-69
2023/03/27 06:01:06;;;;;;;2.10;1.37;;;3.60;99.90;;;;;;5047141;28;20486;-68
2023/03/27 06:03:36;;;;;;;1.20;0.93;;;3.60;99.90;;;;;;5051436;28;20974;-66
2023/03/27 06:06:07;;;;;;;1.40;0.97;;;3.60;99.90;;;;;;5052122;28;20503;-70
2023/03/27 06:08:35;;;;;;;2.03;1.20;;;3.60;99.90;;;;;;5064945;28;20491;-68
2023/03/27 06:11:07;;;;;;;1.40;1.30;;;3.60;99.90;;;;;;5063535;28;20492;-68
2023/03/27 06:13:34;;;;;;;1.70;1.40;;;3.50;99.90;;;;;;5056216;28;20443;-68
2023/03/27 06:16:02;;;;;;;1.40;1.10;;;3.50;99.90;;;;;;5060478;28;20554;-68
2023/03/27 06:18:36;;;;;;;3.03;1.50;;;3.50;99.90;;;;;;5050644;28;20755;-59
2023/03/27 06:21:03;;;;;;;3.20;1.97;;;3.50;99.90;;;;;;5056082;28;20428;-61
2023/03/27 06:23:30;;;;;;;1.30;1.10;;;3.50;99.90;;;;;;5051800;28;20486;-67
2023/03/27 06:25:59;;;;;;;1.30;1.07;;;3.50;99.90;;;;;;5053773;28;20466;-61
2023/03/27 06:28:26;;;;;;;1.27;0.73;;;3.50;99.90;;;;;;5052877;28;20448;-64
2023/03/27 06:30:53;;;;;;;2.70;1.17;;;3.50;99.90;;;;;;5052336;28;20482;-60
2023/03/27 06:33:20;;;;;;;1.00;0.73;;;3.50;99.90;;;;;;5052916;28;20471;-66
2023/03/27 06:35:48;;;;;;;1.40;1.30;;;3.50;99.90;;;;;;5052998;28;20595;-60
2023/03/27 06:38:17;;;;;;;1.90;1.20;;;3.60;99.90;;;;;;5052348;28;20513;-60
2023/03/27 06:40:44;;;;;;;8.50;2.30;;;3.60;99.90;;;;;;5052941;28;20478;-66
2023/03/27 06:43:12;;;;;;;2.20;1.40;;;3.70;99.90;;;;;;5053048;28;20479;-62
2023/03/27 06:45:43;;;;;;;1.20;0.90;;;3.70;99.90;;;;;;5052221;28;20474;-67
2023/03/27 06:48:11;;;;;;;1.60;1.23;;;3.80;99.90;;;;;;5052496;28;20472;-64
2023/03/27 06:50:38;;;;;;;1.70;1.30;;;3.90;99.90;;;;;;5052965;28;20456;-62
2023/03/27 06:53:06;;;;;;;3.23;1.40;;;4.00;99.90;;;;;;5051688;28;20467;-66
2023/03/27 06:55:34;;;;;;;1.57;1.00;;;4.20;99.90;;;;;;5050123;28;20428;-66
2023/03/27 06:58:03;;;;;;;2.30;1.80;;;4.40;99.90;;;;;;5049636;28;20452;-61
2023/03/27 07:00:33;;;;;;;6.10;1.87;;;4.60;99.90;;;;;;5032751;28;20464;-68
2023/03/27 07:03:02;;;;;;;2.20;1.43;;;4.70;99.90;;;;;;5030783;28;20456;-62
2023/03/27 07:05:30;;;;;;;1.33;1.03;;;4.80;99.90;;;;;;5041932;28;20477;-63
2023/03/27 07:07:57;;;;;;;1.83;1.10;;;4.80;99.90;;;;;;5036878;28;20771;-65
2023/03/27 07:10:26;;;;;;;1.83;1.30;;;4.80;99.90;;;;;;5037448;28;20459;-62
2023/03/27 07:12:54;;;;;;;4.40;0.90;;;4.80;99.90;;;;;;5040107;28;20472;-67
2023/03/27 07:15:22;;;;;;;3.53;1.20;;;4.90;99.90;;;;;;5036386;28;20443;-65
2023/03/27 07:17:53;;;;;;;2.50;1.20;;;4.80;99.90;;;;;;5042826;28;20532;-69
2023/03/27 07:20:22;;;;;;;1.93;1.20;;;4.80;99.90;;;;;;5041697;28;20945;-62
2023/03/27 07:22:49;;;;;;;1.57;1.10;;;4.60;99.90;;;;;;5038094;28;20427;-59
2023/03/27 07:25:16;;;;;;;1.30;0.80;;;4.60;99.90;;;;;;5038435;28;20493;-62
2023/03/27 07:27:45;;;;;;;4.10;1.40;;;4.70;99.90;;;;;;5037815;28;20451;-67
2023/03/27 07:30:13;;;;;;;8.37;1.40;;;4.70;99.90;;;;;;5044441;28;20469;-67
2023/03/27 07:32:44;;;;;;;9.50;1.50;;;4.80;99.90;;;;;;5046596;28;20464;-64
2023/03/27 07:35:11;;;;;;;2.30;1.40;;;4.80;99.90;;;;;;5047110;28;20444;-63
2023/03/27 07:37:39;;;;;;;1.83;1.37;;;4.80;99.90;;;;;;5043926;28;20598;-58
2023/03/27 07:40:07;;;;;;;3.37;0.97;;;4.90;99.90;;;;;;5044239;28;20499;-68
2023/03/27 07:42:34;;;;;;;4.30;1.70;;;4.90;99.90;;;;;;5033891;28;20507;-66
2023/03/27 07:45:03;;;;;;;2.00;1.07;;;4.90;99.90;;;;;;5049980;28;20433;-64
2023/03/27 07:47:31;;;;;;;1.63;1.17;;;5.00;99.90;;;;;;5044387;28;20441;-68
2023/03/27 07:49:57;;;;;;;1.87;1.30;;;5.10;99.90;;;;;;5045484;28;20448;-68
2023/03/27 07:52:24;;;;;;;2.90;1.87;;;5.10;99.90;;;;;;5043109;28;20500;-68
2023/03/27 07:54:51;;;;;;;7.53;1.30;;;5.00;99.90;;;;;;5039726;28;20496;-68
2023/03/27 07:57:18;;;;;;;1.53;0.90;;;5.20;99.90;;;;;;5045552;28;20441;-64
2023/03/27 07:59:45;;;;;;;4.33;1.50;;;5.30;99.90;;;;;;5040948;28;20441;-66
2023/03/27 08:02:14;;;;;;;5.10;2.10;;;5.30;99.90;;;;;;5041336;28;20464;-67
2023/03/27 08:04:41;;;;;;;2.90;1.33;;;5.30;99.90;;;;;;5045720;28;20479;-68
2023/03/27 08:07:11;;;;;;;1.63;1.13;;;5.40;99.90;;;;;;5050957;28;20473;-67
2023/03/27 08:09:38;;;;;;;1.57;1.33;;;5.50;99.90;;;;;;5059100;28;20471;-66
2023/03/27 08:12:06;;;;;;;1.90;1.20;;;5.50;99.90;;;;;;5056393;28;20468;-60
2023/03/27 08:14:33;;;;;;;1.90;1.00;;;5.50;99.90;;;;;;5055222;28;20971;-64
2023/03/27 08:17:00;;;;;;;1.77;1.43;;;5.50;99.90;;;;;;5044106;28;20452;-68
2023/03/27 08:19:28;;;;;;;1.53;1.30;;;5.60;99.90;;;;;;5041649;28;20499;-69
2023/03/27 08:21:55;;;;;;;2.87;2.07;;;5.60;99.90;;;;;;5041614;28;20730;-68
2023/03/27 08:24:22;;;;;;;1.77;1.00;;;5.70;99.90;;;;;;5041334;28;20475;-69
2023/03/27 08:26:50;;;;;;;8.13;1.40;;;6.10;99.90;;;;;;5040277;28;21004;-68
2023/03/27 08:29:19;;;;;;;1.63;0.87;;;7.40;99.90;;;;;;5049567;28;20444;-63
2023/03/27 08:31:46;;;;;;;2.40;1.73;;;9.00;99.90;;;;;;5042812;28;20563;-67
2023/03/27 08:34:13;;;;;;;1.37;1.07;;;10.50;99.90;;;;;;5038306;28;20443;-63
2023/03/27 08:36:41;;;;;;;2.67;1.03;;;11.50;96.70;;;;;;5037445;28;20775;-65
2023/03/27 08:39:08;;;;;;;2.17;1.17;;;12.10;91.40;;;;;;5024611;28;20505;-70
2023/03/27 08:41:40;;;;;;;2.17;1.17;;;12.00;90.40;;;;;;5025670;28;20446;-65
2023/03/27 08:44:11;;;;;;;1.90;1.23;;;11.50;89.30;;;;;;5050953;28;20448;-60
2023/03/27 08:46:42;;;;;;;2.30;1.70;;;10.80;89.80;;;;;;5053472;28;20449;-66
2023/03/27 08:49:16;;;;;;;2.07;1.20;;;10.40;91.00;;;;;;5049101;28;20409;-60
2023/03/27 08:51:51;;;;;;;1.10;0.87;;;9.90;92.30;;;;;;5041620;28;20495;-67
2023/03/27 08:54:22;;;;;;;1.97;1.00;;;9.40;92.50;;;;;;5045407;28;20889;-64
2023/03/27 08:56:49;;;;;;;1.50;1.10;;;9.60;94.20;;;;;;5041738;28;20511;-70
2023/03/27 08:59:19;;;;;;;2.90;1.67;;;10.60;92.30;;;;;;5036672;28;20488;-70
2023/03/27 09:01:54;;;;;;;1.67;1.30;;;10.80;90.20;;;;;;5049813;28;20456;-65
2023/03/27 09:04:31;;;;;;;3.50;1.03;;;10.60;88.90;;;;;;5049567;28;20516;-59
2023/03/27 09:07:06;;;;;;;2.13;1.23;;;10.20;89.50;;;;;;5051687;28;20424;-55
2023/03/27 09:09:45;;;;;;;2.80;1.20;;;9.40;91.50;;;;;;5049935;28;20483;-60
2023/03/27 09:12:26;;;;;;;2.17;0.80;;;8.70;93.70;;;;;;5052755;28;20486;-54
2023/03/27 09:14:56;;;;;;;1.93;1.50;;;9.00;95.40;;;;;;5050957;28;20452;-59
2023/03/27 09:17:27;;;;;;;1.30;0.80;;;9.90;93.00;;;;;;5045589;28;20455;-54
2023/03/27 09:19:58;;;;;;;2.60;2.40;;;10.20;90.20;;;;;;5049169;28;20444;-60
2023/03/27 09:22:30;;;;;;;7.53;1.53;;;11.10;89.10;;;;;;5044167;28;20499;-68
2023/03/27 09:25:01;;;;;;;1.50;0.93;;;12.20;85.20;;;;;;5050282;28;20463;-65
2023/03/27 09:27:33;;;;;;;1.70;1.60;;;12.90;76.60;;;;;;5050105;28;20440;-58
2023/03/27 09:30:17;;;;;;;5.53;1.27;;;13.50;72.70;;;;;;5040807;28;20428;-69
2023/03/27 09:32:45;;;;;;;1.03;0.90;;;14.50;66.90;;;;;;5027772;28;20547;-69
2023/03/27 09:35:14;;;;;;;3.20;3.00;;;15.10;63.90;;;;;;5029397;28;21014;-70
2023/03/27 09:37:42;;;;;;;5.10;1.30;;;14.90;59.20;;;;;;5028313;28;20503;-69
2023/03/27 09:40:22;;;;;;;1.73;1.10;;;14.30;60.00;;;;;;5034940;28;20444;-68
2023/03/27 09:42:51;;;;;;;1.70;1.00;;;14.10;61.40;;;;;;5027766;28;20436;-69
2023/03/27 09:45:20;;;;;;;2.60;1.10;;;13.40;59.30;;;;;;5029288;28;21009;-69
2023/03/27 09:47:57;;;;;;;3.20;1.37;;;12.60;62.60;;;;;;5027479;28;20468;-63
2023/03/27 09:50:29;;;;;;;2.43;1.03;;;12.70;62.60;;;;;;5029532;28;20523;-68
2023/03/27 09:53:12;;;;;;;2.70;1.23;;;11.90;63.60;;;;;;5040008;28;20559;-67
2023/03/27 09:55:58;;;;;;;1.30;1.07;;;11.40;65.70;;;;;;5041127;28;20733;-61
2023/03/27 09:58:34;;;;;;;1.70;1.03;;;11.20;68.90;;;;;;5050433;28;20475;-69
2023/03/27 10:01:15;;;;;;;1.70;1.30;;;11.60;64.80;;;;;;5022149;28;20468;-69
2023/03/27 10:03:51;;;;;;;1.10;0.90;;;11.30;63.50;;;;;;5024015;28;20465;-63
2023/03/27 10:06:26;;;;;;;1.20;1.07;;;11.30;63.40;;;;;;5049577;28;20467;-58
2023/03/27 10:08:55;;;;;;;1.67;1.03;;;11.60;62.80;;;;;;5052152;28;20470;-66
2023/03/27 10:11:32;;;;;;;1.10;1.00;;;11.40;63.10;;;;;;5045223;28;20438;-61
2023/03/27 10:14:00;;;;;;;4.10;1.60;;;10.60;65.20;;;;;;5053324;28;20440;-60
2023/03/27 10:16:29;;;;;;;1.60;1.07;;;9.90;69.90;;;;;;5056957;28;20428;-60
2023/03/27 10:19:00;;;;;;;1.53;1.00;;;9.40;72.50;;;;;;5047703;28;20461;-53
2023/03/27 10:21:29;;;;;;;4.33;1.27;;;9.80;74.20;;;;;;5037304;28;20441;-58
2023/03/27 10:24:02;;;;;;;5.87;1.60;;;10.80;70.40;;;;;;5037191;28;20429;-60
2023/03/27 10:26:33;;;;;;;3.13;1.17;;;11.70;65.10;;;;;;5056693;28;20428;-64
2023/03/27 10:29:06;;;;;;;1.80;1.10;;;12.80;61.50;;;;;;5057158;28;20439;-61
2023/03/27 10:31:38;;;;;;;1.37;1.00;;;13.50;58.50;;;;;;5055633;28;20460;-61
2023/03/27 10:34:07;;;;;;;1.93;1.10;;;13.70;56.20;;;;;;5037328;28;20465;-60
2023/03/27 10:36:36;;;;;;;1.20;0.90;;;13.70;56.60;;;;;;5035149;28;20461;-55
2023/03/27 10:39:11;;;;;;;1.97;1.07;;;13.80;59.10;;;;;;5053541;28;20420;-57
2023/03/27 10:41:39;;;;;;;1.70;1.30;;;13.30;58.20;;;;;;5056225;28;20432;-58
2023/03/27 10:44:13;;;;;;;6.23;1.27;;;12.00;60.40;;;;;;5056877;28;20444;-66
2023/03/27 10:46:44;;;;;;;1.70;1.43;;;12.00;64.90;;;;;;5048232;28;20421;-54
2023/03/27 10:49:18;;;;;;;2.20;1.20;;;12.30;63.60;;;;;;5036935;28;20422;-61
2023/03/27 10:51:51;;;;;;;2.97;1.20;;;12.40;58.50;;;;;;5036397;28;20428;-59
2023/03/27 10:54:34;;;;;;;3.50;1.10;;;11.70;57.00;;;;;;5036787;28;20441;-59
2023/03/27 10:57:16;;;;;;;2.07;0.80;;;11.00;58.40;;;;;;5036617;28;20461;-61
2023/03/27 10:59:47;;;;;;;3.03;0.80;;;10.30;58.60;;;;;;5043661;28;20463;-56
2023/03/27 11:02:19;;;;;;;2.23;1.10;;;10.00;60.70;;;;;;5056764;28;20444;-62
2023/03/27 11:04:51;;;;;;;2.90;1.30;;;9.70;64.10;;;;;;5056512;28;20421;-64
2023/03/27 11:07:24;;;;;;;2.30;1.17;;;9.50;66.80;;;;;;5057488;28;20431;-59
2023/03/27 11:10:01;;;;;;;1.57;0.90;;;9.10;67.80;;;;;;5057132;28;20474;-53
2023/03/27 11:12:32;;;;;;;1.87;1.00;;;8.80;69.60;;;;;;5056484;28;20444;-63
2023/03/27 11:15:06;;;;;;;1.93;1.00;;;8.70;70.30;;;;;;5057116;28;20443;-62
2023/03/27 11:17:40;;;;;;;2.17;1.33;;;8.30;70.90;;;;;;5057040;28;20425;-57
2023/03/27 11:20:19;;;;;;;1.30;0.97;;;8.20;72.20;;;;;;5057127;28;20480;-61
2023/03/27 11:22:56;;;;;;;3.07;1.50;;;8.00;73.40;;;;;;5056984;28;20460;-61
2023/03/27 11:25:32;;;;;;;1.43;1.20;;;8.10;73.30;;;;;;5056946;28;20458;-56
2023/03/27 11:28:08;;;;;;;1.30;1.00;;;8.30;73.60;;;;;;5057037;28;20432;-59
2023/03/27 11:30:42;;;;;;;1.93;0.87;;;8.50;71.20;;;;;;5042798;28;20468;-56
2023/03/27 11:33:24;;;;;;;5.80;1.40;;;8.70;71.00;;;;;;5036827;28;20544;-60
2023/03/27 11:35:57;;;;;;;1.37;0.90;;;9.00;72.90;;;;;;5036685;28;20444;-55
2023/03/27 11:38:30;;;;;;;1.83;1.00;;;9.20;69.10;;;;;;5036652;28;20440;-61
2023/03/27 11:40:58;;;;;;;1.43;0.93;;;9.30;66.80;;;;;;5054266;28;20456;-62
2023/03/27 11:43:25;;;;;;;1.20;1.00;;;9.20;63.50;;;;;;5056252;28;20536;-59
2023/03/27 11:46:00;;;;;;;1.27;0.97;;;9.10;63.60;;;;;;5056618;28;20427;-59
2023/03/27 11:48:57;;;;;;;2.30;1.47;;;9.20;63.40;;;;;;5056784;28;20444;-62
2023/03/27 11:51:36;;;;;;;2.17;1.10;;;9.10;63.40;;;;;;5058244;28;20427;-56
2023/03/27 11:54:20;;;;;;;1.10;0.90;;;9.20;66.40;;;;;;5060269;28;20515;-64
2023/03/27 11:56:54;;;;;;;3.23;1.07;;;9.30;66.20;;;;;;5060293;28;20491;-61
2023/03/27 11:59:46;;;;;;;1.00;0.70;;;9.30;65.80;;;;;;5059997;28;20488;-62
2023/03/27 12:02:48;;;;;;;1.30;0.80;;;9.30;66.00;;;;;;5059977;28;20459;-59
2023/03/27 12:05:23;;;;;;;2.10;1.10;;;9.50;66.70;;;;;;5060230;28;20441;-56
2023/03/27 12:08:00;;;;;;;2.67;0.93;;;9.50;67.40;;;;;;5059793;28;20451;-58
2023/03/27 12:10:32;;;;;;;1.67;0.90;;;9.50;65.40;;;;;;5059697;28;20464;-57
2023/03/27 12:13:22;;;;;;;2.03;1.23;;;9.30;65.90;;;;;;5059023;28;20535;-61
2023/03/27 12:16:02;;;;;;;1.00;0.70;;;9.20;66.00;;;;;;5046912;28;20464;-61
2023/03/27 12:18:38;;;;;;;1.93;1.20;;;9.00;65.60;;;;;;5059359;28;20452;-62
2023/03/27 12:21:23;;;;;;;1.40;0.80;;;8.80;66.60;;;;;;5059857;28;20411;-57
2023/03/27 12:24:21;;;;;;;7.10;1.70;;;8.50;67.70;;;;;;5059579;28;20535;-60
2023/03/27 12:27:11;;;;;;;1.10;0.90;;;8.40;69.80;;;;;;5058972;28;20428;-61
2023/03/27 12:29:56;;;;;;;1.50;0.90;;;8.20;70.80;;;;;;5059055;28;20452;-63
2023/03/27 12:32:48;;;;;;;1.23;0.77;;;8.20;71.70;;;;;;5059238;28;20448;-59
2023/03/27 12:35:25;;;;;;;3.03;0.77;;;8.30;73.30;;;;;;5056708;28;20471;-58
2023/03/27 12:37:59;;;;;;;1.47;1.00;;;8.50;73.50;;;;;;5059236;28;20451;-58
2023/03/27 12:40:30;;;;;;;1.67;0.90;;;8.60;73.00;;;;;;5059005;28;20462;-58
2023/03/27 12:43:29;;;;;;;4.90;1.03;;;8.60;73.80;;;;;;5059077;28;20514;-59
2023/03/27 12:46:20;;;;;;;8.27;1.17;;;8.60;71.90;;;;;;5058572;28;20448;-58
2023/03/27 12:49:00;;;;;;;2.53;1.03;;;8.60;73.90;;;;;;5059162;28;20429;-61
2023/03/27 12:51:42;;;;;;;5.27;1.27;;;8.90;74.20;;;;;;5058913;28;20472;-55
2023/03/27 12:54:25;;;;;;;2.47;1.13;;;8.90;74.20;;;;;;5058856;28;20478;-53
2023/03/27 12:57:03;;;;;;;1.23;0.90;;;8.80;72.80;;;;;;5059072;28;20523;-57
2023/03/27 12:59:32;;;;;;;2.23;1.30;;;8.80;71.80;;;;;;5055178;28;20457;-58
2023/03/27 13:02:42;;;;;;;1.10;0.80;;;8.80;71.60;;;;;;5038737;28;20453;-57
2023/03/27 13:05:36;;;;;;;2.50;1.40;;;8.90;73.00;;;;;;5038905;28;20425;-61
2023/03/27 13:08:24;;;;;;;3.30;0.90;;;8.90;71.70;;;;;;5038656;28;20413;-60
2023/03/27 13:11:01;;;;;;;2.23;0.90;;;8.90;71.20;;;;;;5038532;28;20507;-54
2023/03/27 13:14:00;;;;;;;2.77;1.10;;;8.70;71.60;;;;;;5039052;28;20461;-58
2023/03/27 13:16:48;;;;;;;4.03;1.13;;;8.60;73.40;;;;;;5021969;28;20465;-61
2023/03/27 13:19:36;;;;;;;1.20;0.90;;;8.20;75.20;;;;;;5038505;28;20413;-55
2023/03/27 13:22:25;;;;;;;4.30;0.80;;;7.90;85.60;;;;;;5036983;28;20429;-57
2023/03/27 13:25:11;;;;;;;3.53;0.90;;;7.80;91.80;;;;;;5038329;28;20453;-56
2023/03/27 13:27:49;;;;;;;1.53;0.80;;;8.00;91.00;;;;;;5038614;28;20417;-57
2023/03/27 13:30:39;;;;;;;1.93;1.03;;;8.40;89.30;;;;;;5048239;28;20498;-62
2023/03/27 13:33:16;;;;;;;2.93;1.50;;;8.80;90.40;;;;;;5058137;28;20483;-56
2023/03/27 13:36:01;;;;;;;3.80;0.90;;;9.00;89.30;;;;;;5058039;28;20406;-57